Estación de Remehue INIA

Ultimos registro cada 15 minutos 69
Estación Fecha / Hora Temperatura Humedad Lluvia Velocidad Dirección Radiación Presion
69 Remehue INIA 08-05-2026 17:00 11,7 57 0 1,8 89 103 1016
68 Remehue INIA 08-05-2026 16:45 11,9 57,1 0 2,2 86 135 1016
67 Remehue INIA 08-05-2026 16:30 12,1 58,9 0 1,8 91 170 1015
66 Remehue INIA 08-05-2026 16:15 12,2 59,2 0 1,8 87 204 1015
65 Remehue INIA 08-05-2026 16:00 12,2 61,6 0 2,2 85 237 1015
64 Remehue INIA 08-05-2026 15:45 12,3 62,6 0 2 83 272 1015
63 Remehue INIA 08-05-2026 15:30 11,9 65,7 0 2,2 92 303 1015
62 Remehue INIA 08-05-2026 15:15 11,9 65,3 0 2,4 91 333 1014
61 Remehue INIA 08-05-2026 15:00 11,8 67,9 0 2,2 88 380 1014
60 Remehue INIA 08-05-2026 14:45 11,7 69,4 0 2 94 338 1014
59 Remehue INIA 08-05-2026 14:30 11,1 70,8 0 2 99 334 1014
58 Remehue INIA 08-05-2026 14:15 10,8 73,4 0 1,8 110 250 1014
57 Remehue INIA 08-05-2026 14:00 10,7 72,6 0 1,7 87 218 1014
56 Remehue INIA 08-05-2026 13:45 10,3 71,8 0 1,8 86 319 1014
55 Remehue INIA 08-05-2026 13:30 10,1 77,5 0 2,6 90 221 1014
54 Remehue INIA 08-05-2026 13:15 10,1 78,9 0 1,5 117 215 1014
53 Remehue INIA 08-05-2026 13:00 10 80,2 0 1,9 147 292 1014
52 Remehue INIA 08-05-2026 12:45 9,6 82,5 0 1,2 151 229 1014
51 Remehue INIA 08-05-2026 12:30 9,7 82,1 0 1,3 137 220 1014
50 Remehue INIA 08-05-2026 12:15 9,4 85,2 0 1,2 121 260 1014
49 Remehue INIA 08-05-2026 12:00 9,2 86,5 0 1,3 142 206 1014
48 Remehue INIA 08-05-2026 11:45 9 87,6 0 1,4 117 266 1014
47 Remehue INIA 08-05-2026 11:30 8,6 91,9 0 1,1 105 176 1014
46 Remehue INIA 08-05-2026 11:15 8,3 95,6 0 1,6 136 187 1014
45 Remehue INIA 08-05-2026 11:00 8,3 97,7 0 1,3 119 195 1014
44 Remehue INIA 08-05-2026 10:45 7,9 99 0 1 123 207 1014
43 Remehue INIA 08-05-2026 10:30 7,8 99,1 0 1,2 134 76 1014
42 Remehue INIA 08-05-2026 10:15 7,8 99,2 0 0,8 115 140 1014
41 Remehue INIA 08-05-2026 10:00 7,7 99,2 0 0,7 110 112 1014
40 Remehue INIA 08-05-2026 09:45 7,4 99,4 0 0,5 112 89 1013
39 Remehue INIA 08-05-2026 09:30 7,3 99,5 0,1 0,4 103 54 1013
38 Remehue INIA 08-05-2026 09:15 7,1 99,3 0 0,1 154 50 1013
37 Remehue INIA 08-05-2026 09:00 6,9 99,4 0 0,2 102 28 1013
36 Remehue INIA 08-05-2026 08:45 6,8 99,4 0 0 85 17 1012
35 Remehue INIA 08-05-2026 08:30 6,8 99,4 0 0,1 102 11 1012
34 Remehue INIA 08-05-2026 08:15 6,6 99,3 0 0,3 154 9 1012
33 Remehue INIA 08-05-2026 08:00 6,6 99,2 0,1 0 109 1 1011
32 Remehue INIA 08-05-2026 07:45 6,7 99,1 0 0 84 0 1012
31 Remehue INIA 08-05-2026 07:30 6,6 99,2 0 0,1 98 0 1012
30 Remehue INIA 08-05-2026 07:15 6,6 99,1 0,1 0,2 86 0 1012
29 Remehue INIA 08-05-2026 07:00 6,4 99,1 0,1 1 94 0 1012
28 Remehue INIA 08-05-2026 06:45 6,4 99 0 0,9 96 0 1011
27 Remehue INIA 08-05-2026 06:30 6,4 98,9 0,1 0,7 86 0 1011
26 Remehue INIA 08-05-2026 06:15 6,3 98,8 0 0,4 51 0 1011
25 Remehue INIA 08-05-2026 06:00 6,3 98,8 0 0,2 40 0 1010
24 Remehue INIA 08-05-2026 05:45 6,3 98,7 0 0,7 24 0 1010
23 Remehue INIA 08-05-2026 05:30 6,3 98,7 0,1 0,9 27 0 1010
22 Remehue INIA 08-05-2026 05:15 6,3 98,5 0 1 23 0 1010
21 Remehue INIA 08-05-2026 05:00 6,2 98,4 0,1 0,8 27 0 1010
20 Remehue INIA 08-05-2026 04:45 6,2 98,4 0 1,2 23 0 1010
19 Remehue INIA 08-05-2026 04:30 6,2 98,2 0 1,1 27 0 1010
18 Remehue INIA 08-05-2026 04:15 6,2 98,1 0,1 0,9 24 0 1010
17 Remehue INIA 08-05-2026 04:00 6,3 98,1 0 0,6 15 0 1010
16 Remehue INIA 08-05-2026 03:45 6,2 98,1 0 0,9 359 0 1010
15 Remehue INIA 08-05-2026 03:30 6,2 98,1 0,1 1 17 0 1010
14 Remehue INIA 08-05-2026 03:15 6,1 97,9 0,3 0,6 342 0 1010
13 Remehue INIA 08-05-2026 03:00 6,2 97,8 0,2 0,9 10 0 1010
12 Remehue INIA 08-05-2026 02:45 6,1 97,6 0,1 0,6 16 0 1011
11 Remehue INIA 08-05-2026 02:30 6,2 97,3 0,2 0,9 28 0 1011
10 Remehue INIA 08-05-2026 02:15 6,1 97,1 0,1 1,2 5 0 1010
9 Remehue INIA 08-05-2026 02:00 6,1 97,1 0,4 1,5 347 0 1011
8 Remehue INIA 08-05-2026 01:45 6,1 96,7 1 1,4 357 0 1011
7 Remehue INIA 08-05-2026 01:30 6 96,5 0,1 1,2 357 0 1010
6 Remehue INIA 08-05-2026 01:15 6,1 96,3 0,1 1 335 0 1011
5 Remehue INIA 08-05-2026 01:00 6,2 96,1 0 0,8 355 0 1011
4 Remehue INIA 08-05-2026 00:45 6,1 95,7 0,1 1,4 352 0 1012
3 Remehue INIA 08-05-2026 00:30 6,2 95,4 0,3 1,9 351 0 1012
2 Remehue INIA 08-05-2026 00:15 6,2 95,2 0 2 354 0 1012
1 Remehue INIA 08-05-2026 00:00 6,2 96 0,2 1,7 349 0 1012